sensor_id;sensor_type;location;lat;lon;timestamp;temperature;humidity
8939;DHT22;4504;48.810;9.172;2023-02-01T00:02:12;5.10;99.90
8939;DHT22;4504;48.810;9.172;2023-02-01T00:04:39;5.10;99.90
8939;DHT22;4504;48.810;9.172;2023-02-01T00:07:06;5.10;99.90
8939;DHT22;4504;48.810;9.172;2023-02-01T00:09:33;5.10;99.90
8939;DHT22;4504;48.810;9.172;2023-02-01T00:12:00;5.00;99.90
8939;DHT22;4504;48.810;9.172;2023-02-01T00:14:29;5.10;99.90
8939;DHT22;4504;48.810;9.172;2023-02-01T00:16:56;5.10;99.90
8939;DHT22;4504;48.810;9.172;2023-02-01T00:19:24;5.20;99.90
8939;DHT22;4504;48.810;9.172;2023-02-01T00:21:51;5.00;99.90
8939;DHT22;4504;48.810;9.172;2023-02-01T00:24:18;5.00;99.90
8939;DHT22;4504;48.810;9.172;2023-02-01T00:26:45;5.00;99.90
8939;DHT22;4504;48.810;9.172;2023-02-01T00:29:14;4.90;99.90
8939;DHT22;4504;48.810;9.172;2023-02-01T00:31:41;4.90;99.90
8939;DHT22;4504;48.810;9.172;2023-02-01T00:34:10;5.00;99.90
8939;DHT22;4504;48.810;9.172;2023-02-01T00:36:39;5.00;99.90
8939;DHT22;4504;48.810;9.172;2023-02-01T00:39:06;5.00;99.90
8939;DHT22;4504;48.810;9.172;2023-02-01T00:41:34;5.00;99.90
8939;DHT22;4504;48.810;9.172;2023-02-01T00:44:01;5.00;99.90
8939;DHT22;4504;48.810;9.172;2023-02-01T00:46:29;5.00;99.90
8939;DHT22;4504;48.810;9.172;2023-02-01T00:48:57;5.00;99.90
8939;DHT22;4504;48.810;9.172;2023-02-01T00:51:25;5.00;99.90
8939;DHT22;4504;48.810;9.172;2023-02-01T00:53:56;5.00;99.90
8939;DHT22;4504;48.810;9.172;2023-02-01T00:56:24;5.00;99.90
8939;DHT22;4504;48.810;9.172;2023-02-01T00:58:53;5.00;99.90
8939;DHT22;4504;48.810;9.172;2023-02-01T01:01:21;5.00;99.90
8939;DHT22;4504;48.810;9.172;2023-02-01T01:03:50;5.00;99.90
8939;DHT22;4504;48.810;9.172;2023-02-01T01:06:20;5.00;99.90
8939;DHT22;4504;48.810;9.172;2023-02-01T01:08:47;5.00;99.90
8939;DHT22;4504;48.810;9.172;2023-02-01T01:11:17;5.00;99.90
8939;DHT22;4504;48.810;9.172;2023-02-01T01:13:46;5.10;99.90
8939;DHT22;4504;48.810;9.172;2023-02-01T01:16:14;5.10;99.90
8939;DHT22;4504;48.810;9.172;2023-02-01T01:18:41;5.00;99.90
8939;DHT22;4504;48.810;9.172;2023-02-01T01:21:09;5.00;99.90
8939;DHT22;4504;48.810;9.172;2023-02-01T01:23:38;5.00;99.90
8939;DHT22;4504;48.810;9.172;2023-02-01T01:26:06;5.00;99.90
8939;DHT22;4504;48.810;9.172;2023-02-01T01:28:34;5.00;99.90
8939;DHT22;4504;48.810;9.172;2023-02-01T01:31:01;5.00;99.90
8939;DHT22;4504;48.810;9.172;2023-02-01T01:33:29;5.10;99.90
8939;DHT22;4504;48.810;9.172;2023-02-01T01:35:55;5.00;99.90
8939;DHT22;4504;48.810;9.172;2023-02-01T01:38:22;5.00;99.90
8939;DHT22;4504;48.810;9.172;2023-02-01T01:40:49;5.00;99.90
8939;DHT22;4504;48.810;9.172;2023-02-01T01:43:19;5.00;99.90
8939;DHT22;4504;48.810;9.172;2023-02-01T01:45:49;5.00;99.90
8939;DHT22;4504;48.810;9.172;2023-02-01T01:48:20;5.10;99.90
8939;DHT22;4504;48.810;9.172;2023-02-01T01:50:51;5.10;99.90
8939;DHT22;4504;48.810;9.172;2023-02-01T01:53:21;5.10;99.90
8939;DHT22;4504;48.810;9.172;2023-02-01T01:55:52;5.10;99.90
8939;DHT22;4504;48.810;9.172;2023-02-01T01:58:23;5.00;99.90
8939;DHT22;4504;48.810;9.172;2023-02-01T02:00:52;5.10;99.90
8939;DHT22;4504;48.810;9.172;2023-02-01T02:03:22;5.10;99.90
8939;DHT22;4504;48.810;9.172;2023-02-01T02:05:52;5.10;99.90
8939;DHT22;4504;48.810;9.172;2023-02-01T02:08:20;5.10;99.90
8939;DHT22;4504;48.810;9.172;2023-02-01T02:10:49;5.10;99.90
8939;DHT22;4504;48.810;9.172;2023-02-01T02:13:31;5.10;99.90
8939;DHT22;4504;48.810;9.172;2023-02-01T02:16:17;5.10;99.90
8939;DHT22;4504;48.810;9.172;2023-02-01T02:18:55;5.10;99.90
8939;DHT22;4504;48.810;9.172;2023-02-01T02:21:35;5.10;99.90
8939;DHT22;4504;48.810;9.172;2023-02-01T02:24:43;5.10;99.90
8939;DHT22;4504;48.810;9.172;2023-02-01T02:27:28;5.10;99.90
8939;DHT22;4504;48.810;9.172;2023-02-01T02:30:28;5.10;99.90
8939;DHT22;4504;48.810;9.172;2023-02-01T02:33:28;5.10;99.90
8939;DHT22;4504;48.810;9.172;2023-02-01T02:36:01;5.10;99.90
8939;DHT22;4504;48.810;9.172;2023-02-01T02:38:35;5.10;99.90
8939;DHT22;4504;48.810;9.172;2023-02-01T02:41:07;5.10;99.90
8939;DHT22;4504;48.810;9.172;2023-02-01T02:43:43;5.10;99.90
8939;DHT22;4504;48.810;9.172;2023-02-01T02:46:35;5.10;99.90
8939;DHT22;4504;48.810;9.172;2023-02-01T02:49:25;5.10;99.90
8939;DHT22;4504;48.810;9.172;2023-02-01T02:51:58;5.20;99.90
8939;DHT22;4504;48.810;9.172;2023-02-01T02:54:46;5.10;99.90
8939;DHT22;4504;48.810;9.172;2023-02-01T02:57:19;5.20;99.90
8939;DHT22;4504;48.810;9.172;2023-02-01T03:00:07;5.20;99.90
8939;DHT22;4504;48.810;9.172;2023-02-01T03:02:54;5.10;99.90
8939;DHT22;4504;48.810;9.172;2023-02-01T03:05:43;5.20;99.90
8939;DHT22;4504;48.810;9.172;2023-02-01T03:08:13;5.10;99.90
8939;DHT22;4504;48.810;9.172;2023-02-01T03:10:47;5.10;99.90
8939;DHT22;4504;48.810;9.172;2023-02-01T03:13:20;5.10;99.90
8939;DHT22;4504;48.810;9.172;2023-02-01T03:15:55;5.10;99.90
8939;DHT22;4504;48.810;9.172;2023-02-01T03:18:28;5.20;99.90
8939;DHT22;4504;48.810;9.172;2023-02-01T03:21:00;5.20;99.90
8939;DHT22;4504;48.810;9.172;2023-02-01T03:23:35;5.10;99.90
8939;DHT22;4504;48.810;9.172;2023-02-01T03:26:05;5.10;99.90
8939;DHT22;4504;48.810;9.172;2023-02-01T03:28:35;5.10;99.90
8939;DHT22;4504;48.810;9.172;2023-02-01T03:31:03;5.10;99.90
8939;DHT22;4504;48.810;9.172;2023-02-01T03:33:31;5.10;99.90
8939;DHT22;4504;48.810;9.172;2023-02-01T03:36:07;5.10;99.90
8939;DHT22;4504;48.810;9.172;2023-02-01T03:38:39;5.10;99.90
8939;DHT22;4504;48.810;9.172;2023-02-01T03:41:14;5.10;99.90
8939;DHT22;4504;48.810;9.172;2023-02-01T03:43:51;5.10;99.90
8939;DHT22;4504;48.810;9.172;2023-02-01T03:46:24;5.00;99.90
8939;DHT22;4504;48.810;9.172;2023-02-01T03:48:54;5.00;99.90
8939;DHT22;4504;48.810;9.172;2023-02-01T03:51:24;5.10;99.90
8939;DHT22;4504;48.810;9.172;2023-02-01T03:53:53;5.10;99.90
8939;DHT22;4504;48.810;9.172;2023-02-01T03:56:21;5.20;99.90
8939;DHT22;4504;48.810;9.172;2023-02-01T03:58:49;5.20;99.90
8939;DHT22;4504;48.810;9.172;2023-02-01T04:01:27;5.20;99.90
8939;DHT22;4504;48.810;9.172;2023-02-01T04:03:55;5.20;99.90
8939;DHT22;4504;48.810;9.172;2023-02-01T04:06:23;5.20;99.90
8939;DHT22;4504;48.810;9.172;2023-02-01T04:08:52;5.20;99.90
8939;DHT22;4504;48.810;9.172;2023-02-01T04:11:19;5.20;99.90
8939;DHT22;4504;48.810;9.172;2023-02-01T04:13:46;5.10;99.90
8939;DHT22;4504;48.810;9.172;2023-02-01T04:16:13;5.10;99.90
8939;DHT22;4504;48.810;9.172;2023-02-01T04:18:40;5.10;99.90
8939;DHT22;4504;48.810;9.172;2023-02-01T04:21:07;5.20;99.90
8939;DHT22;4504;48.810;9.172;2023-02-01T04:23:35;5.20;99.90
8939;DHT22;4504;48.810;9.172;2023-02-01T04:26:03;5.20;99.90
8939;DHT22;4504;48.810;9.172;2023-02-01T04:28:31;5.20;99.90
8939;DHT22;4504;48.810;9.172;2023-02-01T04:30:58;5.30;99.90
8939;DHT22;4504;48.810;9.172;2023-02-01T04:33:25;5.20;99.90
8939;DHT22;4504;48.810;9.172;2023-02-01T04:35:52;5.20;99.90
8939;DHT22;4504;48.810;9.172;2023-02-01T04:38:19;5.20;99.90
8939;DHT22;4504;48.810;9.172;2023-02-01T04:40:48;5.20;99.90
8939;DHT22;4504;48.810;9.172;2023-02-01T04:43:15;5.20;99.90
8939;DHT22;4504;48.810;9.172;2023-02-01T04:45:47;5.20;99.90
8939;DHT22;4504;48.810;9.172;2023-02-01T04:48:14;5.20;99.90
8939;DHT22;4504;48.810;9.172;2023-02-01T04:50:43;5.20;99.90
8939;DHT22;4504;48.810;9.172;2023-02-01T04:53:10;5.30;99.90
8939;DHT22;4504;48.810;9.172;2023-02-01T04:55:37;5.30;99.90
8939;DHT22;4504;48.810;9.172;2023-02-01T04:58:06;5.30;99.90
8939;DHT22;4504;48.810;9.172;2023-02-01T05:00:33;5.40;99.90
8939;DHT22;4504;48.810;9.172;2023-02-01T05:03:00;5.30;99.90
8939;DHT22;4504;48.810;9.172;2023-02-01T05:05:27;5.30;99.90
8939;DHT22;4504;48.810;9.172;2023-02-01T05:07:54;5.40;99.90
8939;DHT22;4504;48.810;9.172;2023-02-01T05:10:21;5.40;99.90
8939;DHT22;4504;48.810;9.172;2023-02-01T05:12:48;5.40;99.90
8939;DHT22;4504;48.810;9.172;2023-02-01T05:15:34;5.40;99.90
8939;DHT22;4504;48.810;9.172;2023-02-01T05:18:01;5.40;99.90
8939;DHT22;4504;48.810;9.172;2023-02-01T05:20:28;5.40;99.90
8939;DHT22;4504;48.810;9.172;2023-02-01T05:22:55;5.40;99.90
8939;DHT22;4504;48.810;9.172;2023-02-01T05:25:22;5.40;99.90
8939;DHT22;4504;48.810;9.172;2023-02-01T05:27:49;5.40;99.90
8939;DHT22;4504;48.810;9.172;2023-02-01T05:30:16;5.40;99.90
8939;DHT22;4504;48.810;9.172;2023-02-01T05:32:45;5.40;99.90
8939;DHT22;4504;48.810;9.172;2023-02-01T05:35:12;5.40;99.90
8939;DHT22;4504;48.810;9.172;2023-02-01T05:37:39;5.40;99.90
8939;DHT22;4504;48.810;9.172;2023-02-01T05:40:06;5.40;99.90
8939;DHT22;4504;48.810;9.172;2023-02-01T05:42:34;5.40;99.90
8939;DHT22;4504;48.810;9.172;2023-02-01T05:45:00;5.40;99.90
8939;DHT22;4504;48.810;9.172;2023-02-01T05:47:28;5.40;99.90
8939;DHT22;4504;48.810;9.172;2023-02-01T05:49:56;5.50;99.90
8939;DHT22;4504;48.810;9.172;2023-02-01T05:52:23;5.50;99.90
8939;DHT22;4504;48.810;9.172;2023-02-01T05:54:50;5.40;99.90
8939;DHT22;4504;48.810;9.172;2023-02-01T05:57:18;5.40;99.90
8939;DHT22;4504;48.810;9.172;2023-02-01T05:59:45;5.40;99.90
8939;DHT22;4504;48.810;9.172;2023-02-01T06:02:13;5.40;99.90
8939;DHT22;4504;48.810;9.172;2023-02-01T06:04:40;5.40;99.90
8939;DHT22;4504;48.810;9.172;2023-02-01T06:07:09;5.40;99.90
8939;DHT22;4504;48.810;9.172;2023-02-01T06:09:36;5.40;99.90
8939;DHT22;4504;48.810;9.172;2023-02-01T06:12:04;5.40;99.90
8939;DHT22;4504;48.810;9.172;2023-02-01T06:14:31;5.30;99.90
8939;DHT22;4504;48.810;9.172;2023-02-01T06:16:58;5.40;99.90
8939;DHT22;4504;48.810;9.172;2023-02-01T06:19:25;5.30;99.90
8939;DHT22;4504;48.810;9.172;2023-02-01T06:21:52;5.30;99.90
8939;DHT22;4504;48.810;9.172;2023-02-01T06:24:20;5.20;99.90
8939;DHT22;4504;48.810;9.172;2023-02-01T06:26:47;5.40;99.90
8939;DHT22;4504;48.810;9.172;2023-02-01T06:29:14;5.40;99.90
8939;DHT22;4504;48.810;9.172;2023-02-01T06:31:41;5.40;99.90
8939;DHT22;4504;48.810;9.172;2023-02-01T06:34:09;5.30;99.90
8939;DHT22;4504;48.810;9.172;2023-02-01T06:36:36;5.30;99.90
8939;DHT22;4504;48.810;9.172;2023-02-01T06:39:03;5.30;99.90
8939;DHT22;4504;48.810;9.172;2023-02-01T06:41:31;5.30;99.90
8939;DHT22;4504;48.810;9.172;2023-02-01T06:44:00;5.40;99.90
8939;DHT22;4504;48.810;9.172;2023-02-01T06:46:27;5.40;99.90
8939;DHT22;4504;48.810;9.172;2023-02-01T06:48:54;5.40;99.90
8939;DHT22;4504;48.810;9.172;2023-02-01T06:51:22;5.50;99.90
8939;DHT22;4504;48.810;9.172;2023-02-01T06:53:50;5.50;99.90
8939;DHT22;4504;48.810;9.172;2023-02-01T06:56:17;5.50;99.90
8939;DHT22;4504;48.810;9.172;2023-02-01T06:58:46;5.50;99.90
8939;DHT22;4504;48.810;9.172;2023-02-01T07:01:13;5.50;99.90
8939;DHT22;4504;48.810;9.172;2023-02-01T07:03:40;5.60;99.90
8939;DHT22;4504;48.810;9.172;2023-02-01T07:06:09;5.70;99.90
8939;DHT22;4504;48.810;9.172;2023-02-01T07:08:37;5.70;99.90
8939;DHT22;4504;48.810;9.172;2023-02-01T07:11:05;5.70;99.90
8939;DHT22;4504;48.810;9.172;2023-02-01T07:13:33;5.70;99.90
8939;DHT22;4504;48.810;9.172;2023-02-01T07:16:03;5.70;99.90
8939;DHT22;4504;48.810;9.172;2023-02-01T07:18:31;5.80;99.90
8939;DHT22;4504;48.810;9.172;2023-02-01T07:20:58;5.90;99.90
8939;DHT22;4504;48.810;9.172;2023-02-01T07:23:25;5.90;99.90
8939;DHT22;4504;48.810;9.172;2023-02-01T07:25:54;5.90;99.90
8939;DHT22;4504;48.810;9.172;2023-02-01T07:28:21;5.90;99.90
8939;DHT22;4504;48.810;9.172;2023-02-01T07:30:48;5.90;99.90
8939;DHT22;4504;48.810;9.172;2023-02-01T07:33:19;5.90;99.90
8939;DHT22;4504;48.810;9.172;2023-02-01T07:35:47;6.00;99.90
8939;DHT22;4504;48.810;9.172;2023-02-01T07:38:14;6.00;99.90
8939;DHT22;4504;48.810;9.172;2023-02-01T07:40:41;6.00;99.90
8939;DHT22;4504;48.810;9.172;2023-02-01T07:43:09;6.00;99.90
8939;DHT22;4504;48.810;9.172;2023-02-01T07:45:36;6.00;99.90
8939;DHT22;4504;48.810;9.172;2023-02-01T07:48:04;6.00;99.90
8939;DHT22;4504;48.810;9.172;2023-02-01T07:50:32;6.00;99.90
8939;DHT22;4504;48.810;9.172;2023-02-01T07:52:59;6.00;99.90
8939;DHT22;4504;48.810;9.172;2023-02-01T07:55:27;6.10;99.90
8939;DHT22;4504;48.810;9.172;2023-02-01T07:57:57;6.10;99.90
8939;DHT22;4504;48.810;9.172;2023-02-01T08:00:25;6.30;99.90
8939;DHT22;4504;48.810;9.172;2023-02-01T08:03:10;6.30;99.90
8939;DHT22;4504;48.810;9.172;2023-02-01T08:05:38;6.30;99.90
8939;DHT22;4504;48.810;9.172;2023-02-01T08:08:05;6.30;99.90
8939;DHT22;4504;48.810;9.172;2023-02-01T08:10:33;6.30;99.90
8939;DHT22;4504;48.810;9.172;2023-02-01T08:13:01;6.40;99.90
8939;DHT22;4504;48.810;9.172;2023-02-01T08:15:29;6.40;99.90
8939;DHT22;4504;48.810;9.172;2023-02-01T08:17:56;6.30;99.90
8939;DHT22;4504;48.810;9.172;2023-02-01T08:20:24;6.30;99.90
8939;DHT22;4504;48.810;9.172;2023-02-01T08:22:53;6.40;99.90
8939;DHT22;4504;48.810;9.172;2023-02-01T08:25:21;6.40;99.90
8939;DHT22;4504;48.810;9.172;2023-02-01T08:27:48;6.50;99.90
8939;DHT22;4504;48.810;9.172;2023-02-01T08:30:16;6.40;99.90
8939;DHT22;4504;48.810;9.172;2023-02-01T08:32:43;6.40;99.90
8939;DHT22;4504;48.810;9.172;2023-02-01T08:35:10;6.40;99.90
8939;DHT22;4504;48.810;9.172;2023-02-01T08:37:37;6.50;99.90
8939;DHT22;4504;48.810;9.172;2023-02-01T08:40:07;6.60;99.90
8939;DHT22;4504;48.810;9.172;2023-02-01T08:42:34;6.60;99.90
8939;DHT22;4504;48.810;9.172;2023-02-01T08:45:21;6.60;99.90
8939;DHT22;4504;48.810;9.172;2023-02-01T08:47:49;6.60;99.90
8939;DHT22;4504;48.810;9.172;2023-02-01T08:50:17;6.70;99.90
8939;DHT22;4504;48.810;9.172;2023-02-01T08:52:45;6.70;99.90
8939;DHT22;4504;48.810;9.172;2023-02-01T08:55:14;6.70;99.90
8939;DHT22;4504;48.810;9.172;2023-02-01T08:57:41;6.80;99.90
8939;DHT22;4504;48.810;9.172;2023-02-01T09:00:12;6.70;99.90
8939;DHT22;4504;48.810;9.172;2023-02-01T09:02:39;6.70;99.90
8939;DHT22;4504;48.810;9.172;2023-02-01T09:05:07;6.70;99.90
8939;DHT22;4504;48.810;9.172;2023-02-01T09:07:34;6.70;99.90
8939;DHT22;4504;48.810;9.172;2023-02-01T09:10:02;6.70;99.90
8939;DHT22;4504;48.810;9.172;2023-02-01T09:12:32;6.60;99.90
8939;DHT22;4504;48.810;9.172;2023-02-01T09:14:59;6.70;99.90
8939;DHT22;4504;48.810;9.172;2023-02-01T09:17:27;6.70;99.90
8939;DHT22;4504;48.810;9.172;2023-02-01T09:19:54;6.80;99.90
8939;DHT22;4504;48.810;9.172;2023-02-01T09:22:21;6.70;99.90
8939;DHT22;4504;48.810;9.172;2023-02-01T09:24:48;6.60;99.90
8939;DHT22;4504;48.810;9.172;2023-02-01T09:27:15;6.70;99.90
8939;DHT22;4504;48.810;9.172;2023-02-01T09:29:43;6.70;99.90
8939;DHT22;4504;48.810;9.172;2023-02-01T09:32:10;6.70;99.90
8939;DHT22;4504;48.810;9.172;2023-02-01T09:34:37;6.70;99.90
8939;DHT22;4504;48.810;9.172;2023-02-01T09:37:04;6.70;99.90
8939;DHT22;4504;48.810;9.172;2023-02-01T09:39:31;6.80;99.90
8939;DHT22;4504;48.810;9.172;2023-02-01T09:42:08;6.80;99.90
8939;DHT22;4504;48.810;9.172;2023-02-01T09:44:57;6.80;99.90
8939;DHT22;4504;48.810;9.172;2023-02-01T09:47:26;6.90;99.90
8939;DHT22;4504;48.810;9.172;2023-02-01T09:49:56;6.80;99.90
8939;DHT22;4504;48.810;9.172;2023-02-01T09:52:29;6.90;99.90
8939;DHT22;4504;48.810;9.172;2023-02-01T09:55:00;6.80;99.90
8939;DHT22;4504;48.810;9.172;2023-02-01T09:57:35;6.80;99.90
8939;DHT22;4504;48.810;9.172;2023-02-01T10:00:14;6.80;99.90
8939;DHT22;4504;48.810;9.172;2023-02-01T10:02:44;6.90;99.90
8939;DHT22;4504;48.810;9.172;2023-02-01T10:05:15;6.90;99.90
8939;DHT22;4504;48.810;9.172;2023-02-01T10:07:50;6.90;99.90
8939;DHT22;4504;48.810;9.172;2023-02-01T10:10:29;6.90;99.90
8939;DHT22;4504;48.810;9.172;2023-02-01T10:13:16;7.00;99.90
8939;DHT22;4504;48.810;9.172;2023-02-01T10:15:52;7.00;99.90
8939;DHT22;4504;48.810;9.172;2023-02-01T10:18:35;6.90;99.90
8939;DHT22;4504;48.810;9.172;2023-02-01T10:21:12;6.90;99.90
8939;DHT22;4504;48.810;9.172;2023-02-01T10:24:17;6.90;99.90
8939;DHT22;4504;48.810;9.172;2023-02-01T10:26:53;7.00;99.90
8939;DHT22;4504;48.810;9.172;2023-02-01T10:29:25;7.00;99.90
8939;DHT22;4504;48.810;9.172;2023-02-01T10:31:55;7.00;99.90
8939;DHT22;4504;48.810;9.172;2023-02-01T10:34:26;7.00;99.90
8939;DHT22;4504;48.810;9.172;2023-02-01T10:36:56;7.00;99.90
8939;DHT22;4504;48.810;9.172;2023-02-01T10:39:24;7.00;99.90
8939;DHT22;4504;48.810;9.172;2023-02-01T10:41:51;7.00;99.90
8939;DHT22;4504;48.810;9.172;2023-02-01T10:44:22;7.10;99.90
8939;DHT22;4504;48.810;9.172;2023-02-01T10:46:51;7.00;99.90
8939;DHT22;4504;48.810;9.172;2023-02-01T10:49:24;7.00;99.90
8939;DHT22;4504;48.810;9.172;2023-02-01T10:51:55;7.00;99.90
8939;DHT22;4504;48.810;9.172;2023-02-01T10:54:32;7.10;99.90
8939;DHT22;4504;48.810;9.172;2023-02-01T10:57:00;7.10;99.90
8939;DHT22;4504;48.810;9.172;2023-02-01T10:59:29;7.10;99.90
8939;DHT22;4504;48.810;9.172;2023-02-01T11:01:59;7.20;99.90
8939;DHT22;4504;48.810;9.172;2023-02-01T11:04:32;7.10;99.90
8939;DHT22;4504;48.810;9.172;2023-02-01T11:07:13;7.10;99.90
8939;DHT22;4504;48.810;9.172;2023-02-01T11:09:49;7.20;99.90
8939;DHT22;4504;48.810;9.172;2023-02-01T11:12:27;7.20;99.90
8939;DHT22;4504;48.810;9.172;2023-02-01T11:15:11;7.20;99.90
8939;DHT22;4504;48.810;9.172;2023-02-01T11:17:42;7.10;99.90
8939;DHT22;4504;48.810;9.172;2023-02-01T11:20:16;7.10;99.90
8939;DHT22;4504;48.810;9.172;2023-02-01T11:22:48;7.10;99.90
8939;DHT22;4504;48.810;9.172;2023-02-01T11:25:16;7.10;99.90
8939;DHT22;4504;48.810;9.172;2023-02-01T11:27:44;7.10;99.90
8939;DHT22;4504;48.810;9.172;2023-02-01T11:30:16;7.00;99.90
8939;DHT22;4504;48.810;9.172;2023-02-01T11:32:45;7.00;99.90
8939;DHT22;4504;48.810;9.172;2023-02-01T11:35:17;7.00;99.90
8939;DHT22;4504;48.810;9.172;2023-02-01T11:37:50;7.10;99.90
8939;DHT22;4504;48.810;9.172;2023-02-01T11:40:26;7.00;99.90
8939;DHT22;4504;48.810;9.172;2023-02-01T11:42:56;7.00;99.90
8939;DHT22;4504;48.810;9.172;2023-02-01T11:45:28;7.00;99.90
8939;DHT22;4504;48.810;9.172;2023-02-01T11:47:56;7.00;99.90
8939;DHT22;4504;48.810;9.172;2023-02-01T11:50:35;6.90;99.90
8939;DHT22;4504;48.810;9.172;2023-02-01T11:53:25;7.00;99.90
8939;DHT22;4504;48.810;9.172;2023-02-01T11:56:03;7.00;99.90
8939;DHT22;4504;48.810;9.172;2023-02-01T11:58:47;7.00;99.90
8939;DHT22;4504;48.810;9.172;2023-02-01T12:01:30;7.00;99.90
8939;DHT22;4504;48.810;9.172;2023-02-01T12:07:09;7.10;99.90
8939;DHT22;4504;48.810;9.172;2023-02-01T12:09:46;7.10;99.90
8939;DHT22;4504;48.810;9.172;2023-02-01T12:12:21;7.10;99.90
8939;DHT22;4504;48.810;9.172;2023-02-01T12:15:22;7.10;99.90
8939;DHT22;4504;48.810;9.172;2023-02-01T12:21:15;7.00;99.90
8939;DHT22;4504;48.810;9.172;2023-02-01T12:23:57;7.00;99.90
8939;DHT22;4504;48.810;9.172;2023-02-01T12:26:46;7.00;99.90
8939;DHT22;4504;48.810;9.172;2023-02-01T12:29:30;7.00;99.90
8939;DHT22;4504;48.810;9.172;2023-02-01T12:32:11;7.00;99.90
8939;DHT22;4504;48.810;9.172;2023-02-01T12:35:11;7.00;99.90
8939;DHT22;4504;48.810;9.172;2023-02-01T12:37:53;7.10;99.90
8939;DHT22;4504;48.810;9.172;2023-02-01T12:40:37;7.00;99.90
8939;DHT22;4504;48.810;9.172;2023-02-01T12:43:12;7.00;99.90
8939;DHT22;4504;48.810;9.172;2023-02-01T12:45:49;7.00;99.90
8939;DHT22;4504;48.810;9.172;2023-02-01T12:48:26;7.00;99.90
8939;DHT22;4504;48.810;9.172;2023-02-01T12:50:56;6.90;99.90
8939;DHT22;4504;48.810;9.172;2023-02-01T12:53:42;6.90;99.90
8939;DHT22;4504;48.810;9.172;2023-02-01T12:56:16;7.00;99.90
8939;DHT22;4504;48.810;9.172;2023-02-01T12:58:48;6.90;99.90
8939;DHT22;4504;48.810;9.172;2023-02-01T13:01:20;7.10;99.90
8939;DHT22;4504;48.810;9.172;2023-02-01T13:03:56;6.90;99.90
8939;DHT22;4504;48.810;9.172;2023-02-01T13:06:29;6.90;99.90
8939;DHT22;4504;48.810;9.172;2023-02-01T13:09:03;6.80;99.90
8939;DHT22;4504;48.810;9.172;2023-02-01T13:11:37;6.80;99.90
8939;DHT22;4504;48.810;9.172;2023-02-01T13:14:14;6.80;99.90
8939;DHT22;4504;48.810;9.172;2023-02-01T13:16:46;6.70;99.90
8939;DHT22;4504;48.810;9.172;2023-02-01T13:19:17;6.70;99.90
8939;DHT22;4504;48.810;9.172;2023-02-01T13:21:49;6.70;99.90
8939;DHT22;4504;48.810;9.172;2023-02-01T13:24:29;6.70;99.90
8939;DHT22;4504;48.810;9.172;2023-02-01T13:27:00;6.70;99.90
8939;DHT22;4504;48.810;9.172;2023-02-01T13:29:28;6.80;99.90
8939;DHT22;4504;48.810;9.172;2023-02-01T13:35:17;6.80;99.90
8939;DHT22;4504;48.810;9.172;2023-02-01T13:41:15;6.80;99.90
8939;DHT22;4504;48.810;9.172;2023-02-01T13:43:51;6.80;99.90
8939;DHT22;4504;48.810;9.172;2023-02-01T13:46:20;6.90;99.90
8939;DHT22;4504;48.810;9.172;2023-02-01T13:48:49;6.80;99.90
8939;DHT22;4504;48.810;9.172;2023-02-01T13:51:28;6.80;99.90
8939;DHT22;4504;48.810;9.172;2023-02-01T13:53:57;6.80;99.90
8939;DHT22;4504;48.810;9.172;2023-02-01T13:56:25;6.80;99.90
8939;DHT22;4504;48.810;9.172;2023-02-01T13:58:54;6.70;99.90
8939;DHT22;4504;48.810;9.172;2023-02-01T14:01:46;6.70;99.90
8939;DHT22;4504;48.810;9.172;2023-02-01T14:04:46;6.70;99.90
8939;DHT22;4504;48.810;9.172;2023-02-01T14:07:18;6.60;99.90
8939;DHT22;4504;48.810;9.172;2023-02-01T14:09:45;6.70;99.90
8939;DHT22;4504;48.810;9.172;2023-02-01T14:12:43;6.70;99.90
8939;DHT22;4504;48.810;9.172;2023-02-01T14:15:24;6.70;99.90
8939;DHT22;4504;48.810;9.172;2023-02-01T14:17:51;6.70;99.90
8939;DHT22;4504;48.810;9.172;2023-02-01T14:20:46;6.60;99.90
8939;DHT22;4504;48.810;9.172;2023-02-01T14:23:29;6.80;99.90
8939;DHT22;4504;48.810;9.172;2023-02-01T14:26:20;6.80;99.90
8939;DHT22;4504;48.810;9.172;2023-02-01T14:29:12;6.90;99.90
8939;DHT22;4504;48.810;9.172;2023-02-01T14:32:00;6.90;99.90
8939;DHT22;4504;48.810;9.172;2023-02-01T14:34:38;6.80;99.90
8939;DHT22;4504;48.810;9.172;2023-02-01T14:37:11;6.80;99.90
8939;DHT22;4504;48.810;9.172;2023-02-01T14:39:59;6.80;99.90
8939;DHT22;4504;48.810;9.172;2023-02-01T14:42:31;6.80;99.90
8939;DHT22;4504;48.810;9.172;2023-02-01T14:51:02;6.80;99.90
8939;DHT22;4504;48.810;9.172;2023-02-01T14:53:33;6.80;99.90
8939;DHT22;4504;48.810;9.172;2023-02-01T14:56:08;6.80;99.90
8939;DHT22;4504;48.810;9.172;2023-02-01T14:58:40;6.80;99.90
8939;DHT22;4504;48.810;9.172;2023-02-01T15:01:17;6.80;99.90
8939;DHT22;4504;48.810;9.172;2023-02-01T15:03:52;6.70;99.90
8939;DHT22;4504;48.810;9.172;2023-02-01T15:06:27;6.70;99.90
8939;DHT22;4504;48.810;9.172;2023-02-01T15:08:57;6.80;99.90
8939;DHT22;4504;48.810;9.172;2023-02-01T15:11:25;6.70;99.90
8939;DHT22;4504;48.810;9.172;2023-02-01T15:13:53;6.70;99.90
8939;DHT22;4504;48.810;9.172;2023-02-01T15:16:23;6.70;99.90
8939;DHT22;4504;48.810;9.172;2023-02-01T15:19:06;6.70;99.90
8939;DHT22;4504;48.810;9.172;2023-02-01T15:21:42;6.80;99.90
8939;DHT22;4504;48.810;9.172;2023-02-01T15:24:11;6.80;99.90
8939;DHT22;4504;48.810;9.172;2023-02-01T15:26:38;6.80;99.90
8939;DHT22;4504;48.810;9.172;2023-02-01T15:29:08;6.80;99.90
8939;DHT22;4504;48.810;9.172;2023-02-01T15:31:38;6.90;99.90
8939;DHT22;4504;48.810;9.172;2023-02-01T15:34:06;6.90;99.90
8939;DHT22;4504;48.810;9.172;2023-02-01T15:36:35;6.90;99.90
8939;DHT22;4504;48.810;9.172;2023-02-01T15:39:18;6.90;99.90
8939;DHT22;4504;48.810;9.172;2023-02-01T15:41:50;6.90;99.90
8939;DHT22;4504;48.810;9.172;2023-02-01T15:44:26;6.90;99.90
8939;DHT22;4504;48.810;9.172;2023-02-01T15:46:55;6.90;99.90
8939;DHT22;4504;48.810;9.172;2023-02-01T15:49:26;6.90;99.90
8939;DHT22;4504;48.810;9.172;2023-02-01T15:51:55;6.90;99.90
8939;DHT22;4504;48.810;9.172;2023-02-01T15:54:26;6.80;99.90
8939;DHT22;4504;48.810;9.172;2023-02-01T15:56:58;7.00;99.90
8939;DHT22;4504;48.810;9.172;2023-02-01T15:59:31;7.00;99.90
8939;DHT22;4504;48.810;9.172;2023-02-01T16:01:59;7.00;99.90
8939;DHT22;4504;48.810;9.172;2023-02-01T16:04:28;7.00;99.90
8939;DHT22;4504;48.810;9.172;2023-02-01T16:07:00;7.00;99.90
8939;DHT22;4504;48.810;9.172;2023-02-01T16:09:37;6.90;99.90
8939;DHT22;4504;48.810;9.172;2023-02-01T16:12:23;6.90;99.90
8939;DHT22;4504;48.810;9.172;2023-02-01T16:14:50;6.90;99.90
8939;DHT22;4504;48.810;9.172;2023-02-01T16:17:17;6.90;99.90
8939;DHT22;4504;48.810;9.172;2023-02-01T16:19:44;7.00;99.90
8939;DHT22;4504;48.810;9.172;2023-02-01T16:22:12;6.90;99.90
8939;DHT22;4504;48.810;9.172;2023-02-01T16:24:39;7.00;99.90
8939;DHT22;4504;48.810;9.172;2023-02-01T16:27:06;6.90;99.90
8939;DHT22;4504;48.810;9.172;2023-02-01T16:29:33;7.00;99.90
8939;DHT22;4504;48.810;9.172;2023-02-01T16:32:00;7.00;99.90
8939;DHT22;4504;48.810;9.172;2023-02-01T16:34:27;7.00;99.90
8939;DHT22;4504;48.810;9.172;2023-02-01T16:36:54;7.00;99.90
8939;DHT22;4504;48.810;9.172;2023-02-01T16:39:24;6.90;99.90
8939;DHT22;4504;48.810;9.172;2023-02-01T16:41:53;6.90;99.90
8939;DHT22;4504;48.810;9.172;2023-02-01T16:44:20;7.00;99.90
8939;DHT22;4504;48.810;9.172;2023-02-01T16:46:48;6.90;99.90
8939;DHT22;4504;48.810;9.172;2023-02-01T16:49:19;7.00;99.90
8939;DHT22;4504;48.810;9.172;2023-02-01T16:51:47;6.90;99.90
8939;DHT22;4504;48.810;9.172;2023-02-01T16:54:14;7.00;99.90
8939;DHT22;4504;48.810;9.172;2023-02-01T16:56:44;7.00;99.90
8939;DHT22;4504;48.810;9.172;2023-02-01T16:59:12;7.00;99.90
8939;DHT22;4504;48.810;9.172;2023-02-01T17:01:40;7.00;99.90
8939;DHT22;4504;48.810;9.172;2023-02-01T17:04:08;7.00;99.90
8939;DHT22;4504;48.810;9.172;2023-02-01T17:06:36;6.90;99.90